sensor_id;sensor_type;location;lat;lon;timestamp;P1;durP1;ratioP1;P2;durP2;ratioP2
75459;SDS011;64039;53.060;9.342;2023-02-22T00:00:08;31.98;;;15.07;;
75459;SDS011;64039;53.060;9.342;2023-02-22T00:02:45;34.50;;;16.60;;
75459;SDS011;64039;53.060;9.342;2023-02-22T00:05:11;33.70;;;15.40;;
75459;SDS011;64039;53.060;9.342;2023-02-22T00:07:41;33.60;;;16.60;;
75459;SDS011;64039;53.060;9.342;2023-02-22T00:10:09;30.92;;;15.18;;
75459;SDS011;64039;53.060;9.342;2023-02-22T00:12:40;32.55;;;14.88;;
75459;SDS011;64039;53.060;9.342;2023-02-22T00:15:07;30.33;;;14.45;;
75459;SDS011;64039;53.060;9.342;2023-02-22T00:17:34;31.13;;;14.73;;
75459;SDS011;64039;53.060;9.342;2023-02-22T00:19:59;30.60;;;15.05;;
75459;SDS011;64039;53.060;9.342;2023-02-22T00:22:25;29.48;;;14.98;;
75459;SDS011;64039;53.060;9.342;2023-02-22T00:24:50;31.52;;;15.15;;
75459;SDS011;64039;53.060;9.342;2023-02-22T00:27:16;31.38;;;14.73;;
75459;SDS011;64039;53.060;9.342;2023-02-22T00:29:44;30.25;;;14.13;;
75459;SDS011;64039;53.060;9.342;2023-02-22T00:32:11;28.38;;;14.73;;
75459;SDS011;64039;53.060;9.342;2023-02-22T00:34:36;30.75;;;14.90;;
75459;SDS011;64039;53.060;9.342;2023-02-22T00:37:02;29.58;;;14.23;;
75459;SDS011;64039;53.060;9.342;2023-02-22T00:39:28;27.35;;;13.38;;
75459;SDS011;64039;53.060;9.342;2023-02-22T00:41:54;25.17;;;13.35;;
75459;SDS011;64039;53.060;9.342;2023-02-22T00:44:20;28.38;;;14.50;;
75459;SDS011;64039;53.060;9.342;2023-02-22T00:46:46;26.75;;;13.43;;
75459;SDS011;64039;53.060;9.342;2023-02-22T00:49:11;27.83;;;13.98;;
75459;SDS011;64039;53.060;9.342;2023-02-22T00:51:37;27.08;;;13.20;;
75459;SDS011;64039;53.060;9.342;2023-02-22T00:54:02;27.58;;;13.52;;
75459;SDS011;64039;53.060;9.342;2023-02-22T00:56:31;25.73;;;13.55;;
75459;SDS011;64039;53.060;9.342;2023-02-22T00:58:58;26.75;;;14.00;;
75459;SDS011;64039;53.060;9.342;2023-02-22T01:01:25;27.63;;;12.93;;
75459;SDS011;64039;53.060;9.342;2023-02-22T01:03:51;28.98;;;13.52;;
75459;SDS011;64039;53.060;9.342;2023-02-22T01:06:17;26.63;;;14.43;;
75459;SDS011;64039;53.060;9.342;2023-02-22T01:08:43;25.63;;;13.02;;
75459;SDS011;64039;53.060;9.342;2023-02-22T01:11:09;25.88;;;12.75;;
75459;SDS011;64039;53.060;9.342;2023-02-22T01:13:35;25.70;;;12.82;;
75459;SDS011;64039;53.060;9.342;2023-02-22T01:16:00;27.63;;;14.30;;
75459;SDS011;64039;53.060;9.342;2023-02-22T01:18:27;27.55;;;14.40;;
75459;SDS011;64039;53.060;9.342;2023-02-22T01:20:52;26.30;;;13.13;;
75459;SDS011;64039;53.060;9.342;2023-02-22T01:23:18;25.73;;;13.75;;
75459;SDS011;64039;53.060;9.342;2023-02-22T01:25:43;26.77;;;13.73;;
75459;SDS011;64039;53.060;9.342;2023-02-22T01:28:09;25.90;;;13.43;;
75459;SDS011;64039;53.060;9.342;2023-02-22T01:30:35;27.88;;;14.35;;
75459;SDS011;64039;53.060;9.342;2023-02-22T01:33:01;23.70;;;12.20;;
75459;SDS011;64039;53.060;9.342;2023-02-22T01:35:29;22.98;;;12.25;;
75459;SDS011;64039;53.060;9.342;2023-02-22T01:37:57;27.63;;;13.75;;
75459;SDS011;64039;53.060;9.342;2023-02-22T01:40:32;26.70;;;13.32;;
75459;SDS011;64039;53.060;9.342;2023-02-22T01:43:01;24.67;;;13.25;;
75459;SDS011;64039;53.060;9.342;2023-02-22T01:47:55;29.13;;;14.68;;
75459;SDS011;64039;53.060;9.342;2023-02-22T01:50:24;28.02;;;14.07;;
75459;SDS011;64039;53.060;9.342;2023-02-22T01:52:49;26.55;;;13.90;;
75459;SDS011;64039;53.060;9.342;2023-02-22T01:55:15;26.20;;;13.60;;
75459;SDS011;64039;53.060;9.342;2023-02-22T01:57:42;26.27;;;12.88;;
75459;SDS011;64039;53.060;9.342;2023-02-22T02:00:10;24.23;;;12.55;;
75459;SDS011;64039;53.060;9.342;2023-02-22T02:02:42;29.38;;;14.45;;
75459;SDS011;64039;53.060;9.342;2023-02-22T02:05:09;25.17;;;13.40;;
75459;SDS011;64039;53.060;9.342;2023-02-22T02:07:36;25.35;;;13.23;;
75459;SDS011;64039;53.060;9.342;2023-02-22T02:10:04;25.92;;;13.43;;
75459;SDS011;64039;53.060;9.342;2023-02-22T02:12:33;27.45;;;13.40;;
75459;SDS011;64039;53.060;9.342;2023-02-22T02:15:16;28.67;;;13.20;;
75459;SDS011;64039;53.060;9.342;2023-02-22T02:17:54;26.08;;;13.05;;
75459;SDS011;64039;53.060;9.342;2023-02-22T02:23:26;24.23;;;12.55;;
75459;SDS011;64039;53.060;9.342;2023-02-22T02:31:23;24.90;;;12.80;;
75459;SDS011;64039;53.060;9.342;2023-02-22T02:34:11;24.02;;;12.05;;
75459;SDS011;64039;53.060;9.342;2023-02-22T02:39:43;24.27;;;13.23;;
75459;SDS011;64039;53.060;9.342;2023-02-22T02:42:21;25.88;;;13.35;;
75459;SDS011;64039;53.060;9.342;2023-02-22T02:47:50;26.17;;;12.80;;
75459;SDS011;64039;53.060;9.342;2023-02-22T02:50:20;24.40;;;12.95;;
75459;SDS011;64039;53.060;9.342;2023-02-22T02:52:51;23.90;;;12.57;;
75459;SDS011;64039;53.060;9.342;2023-02-22T02:55:19;24.00;;;12.95;;
75459;SDS011;64039;53.060;9.342;2023-02-22T02:57:45;23.52;;;13.27;;
75459;SDS011;64039;53.060;9.342;2023-02-22T03:00:11;26.67;;;13.02;;
75459;SDS011;64039;53.060;9.342;2023-02-22T03:09:03;25.27;;;13.55;;
75459;SDS011;64039;53.060;9.342;2023-02-22T03:11:50;27.73;;;14.57;;
75459;SDS011;64039;53.060;9.342;2023-02-22T03:14:38;27.77;;;13.88;;
75459;SDS011;64039;53.060;9.342;2023-02-22T03:17:13;26.00;;;13.43;;
75459;SDS011;64039;53.060;9.342;2023-02-22T03:19:45;22.83;;;12.90;;
75459;SDS011;64039;53.060;9.342;2023-02-22T03:25:20;27.45;;;13.35;;
75459;SDS011;64039;53.060;9.342;2023-02-22T03:28:07;24.85;;;13.70;;
75459;SDS011;64039;53.060;9.342;2023-02-22T03:31:11;26.08;;;14.25;;
75459;SDS011;64039;53.060;9.342;2023-02-22T03:33:51;27.63;;;15.18;;
75459;SDS011;64039;53.060;9.342;2023-02-22T03:36:22;27.15;;;15.02;;
75459;SDS011;64039;53.060;9.342;2023-02-22T03:38:52;26.08;;;15.20;;
75459;SDS011;64039;53.060;9.342;2023-02-22T03:41:20;29.33;;;14.95;;
75459;SDS011;64039;53.060;9.342;2023-02-22T03:43:49;27.45;;;14.57;;
75459;SDS011;64039;53.060;9.342;2023-02-22T03:46:32;27.80;;;14.55;;
75459;SDS011;64039;53.060;9.342;2023-02-22T03:49:19;26.95;;;14.40;;
75459;SDS011;64039;53.060;9.342;2023-02-22T03:52:02;28.00;;;15.20;;
75459;SDS011;64039;53.060;9.342;2023-02-22T03:54:29;29.05;;;15.32;;
75459;SDS011;64039;53.060;9.342;2023-02-22T03:56:57;31.38;;;15.70;;
75459;SDS011;64039;53.060;9.342;2023-02-22T03:59:32;29.25;;;15.73;;
75459;SDS011;64039;53.060;9.342;2023-02-22T04:01:58;27.88;;;15.25;;
75459;SDS011;64039;53.060;9.342;2023-02-22T04:04:24;28.90;;;15.80;;
75459;SDS011;64039;53.060;9.342;2023-02-22T04:06:50;29.30;;;15.52;;
75459;SDS011;64039;53.060;9.342;2023-02-22T04:09:16;31.05;;;15.65;;
75459;SDS011;64039;53.060;9.342;2023-02-22T04:11:43;31.70;;;15.80;;
75459;SDS011;64039;53.060;9.342;2023-02-22T04:14:09;31.95;;;15.98;;
75459;SDS011;64039;53.060;9.342;2023-02-22T04:16:34;29.67;;;16.75;;
75459;SDS011;64039;53.060;9.342;2023-02-22T04:18:59;33.05;;;16.02;;
75459;SDS011;64039;53.060;9.342;2023-02-22T04:21:25;33.72;;;16.75;;
75459;SDS011;64039;53.060;9.342;2023-02-22T04:23:50;32.35;;;17.38;;
75459;SDS011;64039;53.060;9.342;2023-02-22T04:26:16;33.03;;;16.70;;
75459;SDS011;64039;53.060;9.342;2023-02-22T04:28:42;32.03;;;16.75;;
75459;SDS011;64039;53.060;9.342;2023-02-22T04:31:07;33.38;;;16.83;;
75459;SDS011;64039;53.060;9.342;2023-02-22T04:33:33;35.40;;;17.50;;
75459;SDS011;64039;53.060;9.342;2023-02-22T04:35:58;32.17;;;16.20;;
75459;SDS011;64039;53.060;9.342;2023-02-22T04:38:24;31.25;;;16.40;;
75459;SDS011;64039;53.060;9.342;2023-02-22T04:40:51;29.50;;;15.60;;
75459;SDS011;64039;53.060;9.342;2023-02-22T04:43:17;29.77;;;15.10;;
75459;SDS011;64039;53.060;9.342;2023-02-22T04:45:43;29.38;;;15.43;;
75459;SDS011;64039;53.060;9.342;2023-02-22T04:48:08;30.08;;;15.77;;
75459;SDS011;64039;53.060;9.342;2023-02-22T04:50:34;33.78;;;16.85;;
75459;SDS011;64039;53.060;9.342;2023-02-22T04:53:00;36.60;;;17.88;;
75459;SDS011;64039;53.060;9.342;2023-02-22T04:55:25;35.40;;;17.67;;
75459;SDS011;64039;53.060;9.342;2023-02-22T04:57:52;31.25;;;16.55;;
75459;SDS011;64039;53.060;9.342;2023-02-22T05:00:18;33.28;;;17.17;;
75459;SDS011;64039;53.060;9.342;2023-02-22T05:02:48;32.63;;;17.00;;
75459;SDS011;64039;53.060;9.342;2023-02-22T05:05:15;29.88;;;16.35;;
75459;SDS011;64039;53.060;9.342;2023-02-22T05:07:43;36.95;;;18.38;;
75459;SDS011;64039;53.060;9.342;2023-02-22T05:10:09;35.80;;;17.55;;
75459;SDS011;64039;53.060;9.342;2023-02-22T05:12:36;30.98;;;16.85;;
75459;SDS011;64039;53.060;9.342;2023-02-22T05:15:03;31.17;;;17.45;;
75459;SDS011;64039;53.060;9.342;2023-02-22T05:17:31;35.33;;;16.88;;
75459;SDS011;64039;53.060;9.342;2023-02-22T05:19:57;32.97;;;17.20;;
75459;SDS011;64039;53.060;9.342;2023-02-22T05:22:23;31.02;;;16.92;;
75459;SDS011;64039;53.060;9.342;2023-02-22T05:24:50;35.13;;;17.58;;
75459;SDS011;64039;53.060;9.342;2023-02-22T05:27:19;31.90;;;16.30;;
75459;SDS011;64039;53.060;9.342;2023-02-22T05:29:45;33.22;;;16.58;;
75459;SDS011;64039;53.060;9.342;2023-02-22T05:32:10;33.97;;;17.85;;
75459;SDS011;64039;53.060;9.342;2023-02-22T05:34:39;32.60;;;16.48;;
75459;SDS011;64039;53.060;9.342;2023-02-22T05:37:05;32.42;;;16.75;;
75459;SDS011;64039;53.060;9.342;2023-02-22T05:39:31;31.98;;;17.20;;
75459;SDS011;64039;53.060;9.342;2023-02-22T05:41:57;33.85;;;17.83;;
75459;SDS011;64039;53.060;9.342;2023-02-22T05:44:23;32.90;;;16.70;;
75459;SDS011;64039;53.060;9.342;2023-02-22T05:46:49;30.27;;;15.93;;
75459;SDS011;64039;53.060;9.342;2023-02-22T05:49:14;31.30;;;16.02;;
75459;SDS011;64039;53.060;9.342;2023-02-22T05:51:40;32.30;;;16.25;;
75459;SDS011;64039;53.060;9.342;2023-02-22T05:54:05;30.27;;;15.45;;
75459;SDS011;64039;53.060;9.342;2023-02-22T05:56:31;31.33;;;15.80;;
75459;SDS011;64039;53.060;9.342;2023-02-22T05:58:56;30.85;;;16.00;;
75459;SDS011;64039;53.060;9.342;2023-02-22T06:01:22;30.63;;;15.55;;
75459;SDS011;64039;53.060;9.342;2023-02-22T06:03:49;32.28;;;15.90;;
75459;SDS011;64039;53.060;9.342;2023-02-22T06:06:15;29.40;;;14.85;;
75459;SDS011;64039;53.060;9.342;2023-02-22T06:08:42;31.38;;;15.15;;
75459;SDS011;64039;53.060;9.342;2023-02-22T06:11:08;30.52;;;15.13;;
75459;SDS011;64039;53.060;9.342;2023-02-22T06:13:34;30.00;;;15.27;;
75459;SDS011;64039;53.060;9.342;2023-02-22T06:16:00;29.42;;;15.50;;
75459;SDS011;64039;53.060;9.342;2023-02-22T06:18:26;30.73;;;15.75;;
75459;SDS011;64039;53.060;9.342;2023-02-22T06:20:54;34.33;;;15.10;;
75459;SDS011;64039;53.060;9.342;2023-02-22T06:23:20;28.23;;;14.68;;
75459;SDS011;64039;53.060;9.342;2023-02-22T06:25:46;28.23;;;13.88;;
75459;SDS011;64039;53.060;9.342;2023-02-22T06:28:12;27.73;;;13.75;;
75459;SDS011;64039;53.060;9.342;2023-02-22T06:30:39;28.05;;;13.52;;
75459;SDS011;64039;53.060;9.342;2023-02-22T06:33:07;27.77;;;13.90;;
75459;SDS011;64039;53.060;9.342;2023-02-22T06:35:34;28.20;;;13.88;;
75459;SDS011;64039;53.060;9.342;2023-02-22T06:38:00;30.55;;;14.23;;
75459;SDS011;64039;53.060;9.342;2023-02-22T06:40:26;28.08;;;13.30;;
75459;SDS011;64039;53.060;9.342;2023-02-22T06:42:56;31.88;;;15.35;;
75459;SDS011;64039;53.060;9.342;2023-02-22T06:45:22;30.52;;;14.85;;
75459;SDS011;64039;53.060;9.342;2023-02-22T06:47:48;29.17;;;14.30;;
75459;SDS011;64039;53.060;9.342;2023-02-22T06:52:51;32.70;;;15.40;;
75459;SDS011;64039;53.060;9.342;2023-02-22T06:55:18;29.83;;;15.02;;
75459;SDS011;64039;53.060;9.342;2023-02-22T06:57:45;28.00;;;14.70;;
75459;SDS011;64039;53.060;9.342;2023-02-22T07:00:13;33.45;;;16.58;;
75459;SDS011;64039;53.060;9.342;2023-02-22T07:02:41;31.02;;;14.52;;
75459;SDS011;64039;53.060;9.342;2023-02-22T07:05:08;32.25;;;15.05;;
75459;SDS011;64039;53.060;9.342;2023-02-22T07:07:36;31.70;;;15.00;;
75459;SDS011;64039;53.060;9.342;2023-02-22T07:10:03;29.25;;;14.85;;
75459;SDS011;64039;53.060;9.342;2023-02-22T07:12:32;31.98;;;14.88;;
75459;SDS011;64039;53.060;9.342;2023-02-22T07:14:59;35.08;;;15.85;;
75459;SDS011;64039;53.060;9.342;2023-02-22T07:17:25;33.72;;;15.77;;
75459;SDS011;64039;53.060;9.342;2023-02-22T07:19:51;28.73;;;14.55;;
75459;SDS011;64039;53.060;9.342;2023-02-22T07:22:16;35.92;;;16.30;;
75459;SDS011;64039;53.060;9.342;2023-02-22T07:24:42;37.45;;;16.58;;
75459;SDS011;64039;53.060;9.342;2023-02-22T07:27:08;31.25;;;14.77;;
75459;SDS011;64039;53.060;9.342;2023-02-22T07:29:34;34.03;;;16.05;;
75459;SDS011;64039;53.060;9.342;2023-02-22T07:32:02;28.95;;;14.77;;
75459;SDS011;64039;53.060;9.342;2023-02-22T07:34:28;35.38;;;15.70;;
75459;SDS011;64039;53.060;9.342;2023-02-22T07:36:54;31.33;;;14.27;;
75459;SDS011;64039;53.060;9.342;2023-02-22T07:39:20;33.15;;;14.75;;
75459;SDS011;64039;53.060;9.342;2023-02-22T07:41:46;35.95;;;15.75;;
75459;SDS011;64039;53.060;9.342;2023-02-22T07:44:12;31.10;;;15.00;;
75459;SDS011;64039;53.060;9.342;2023-02-22T07:46:38;33.05;;;14.80;;
75459;SDS011;64039;53.060;9.342;2023-02-22T07:49:03;33.15;;;13.88;;
75459;SDS011;64039;53.060;9.342;2023-02-22T07:51:29;34.03;;;15.30;;
75459;SDS011;64039;53.060;9.342;2023-02-22T07:53:54;31.92;;;15.00;;
75459;SDS011;64039;53.060;9.342;2023-02-22T07:56:20;32.30;;;14.85;;
75459;SDS011;64039;53.060;9.342;2023-02-22T07:58:45;34.67;;;14.52;;
75459;SDS011;64039;53.060;9.342;2023-02-22T08:01:11;30.58;;;14.02;;
75459;SDS011;64039;53.060;9.342;2023-02-22T08:03:36;33.80;;;14.63;;
75459;SDS011;64039;53.060;9.342;2023-02-22T08:06:03;34.53;;;14.85;;
75459;SDS011;64039;53.060;9.342;2023-02-22T08:08:30;32.33;;;13.82;;
75459;SDS011;64039;53.060;9.342;2023-02-22T08:10:55;30.23;;;13.52;;
75459;SDS011;64039;53.060;9.342;2023-02-22T08:13:21;30.52;;;13.73;;
75459;SDS011;64039;53.060;9.342;2023-02-22T08:15:48;30.55;;;13.20;;
75459;SDS011;64039;53.060;9.342;2023-02-22T08:18:16;28.70;;;13.27;;
75459;SDS011;64039;53.060;9.342;2023-02-22T08:20:43;29.45;;;13.00;;
75459;SDS011;64039;53.060;9.342;2023-02-22T08:23:11;31.23;;;13.18;;
75459;SDS011;64039;53.060;9.342;2023-02-22T08:25:37;30.00;;;13.02;;
75459;SDS011;64039;53.060;9.342;2023-02-22T08:28:10;28.58;;;12.82;;
75459;SDS011;64039;53.060;9.342;2023-02-22T08:30:39;29.08;;;13.73;;
75459;SDS011;64039;53.060;9.342;2023-02-22T08:33:07;28.23;;;12.32;;
75459;SDS011;64039;53.060;9.342;2023-02-22T08:35:35;28.55;;;12.50;;
75459;SDS011;64039;53.060;9.342;2023-02-22T08:38:02;29.17;;;11.93;;
75459;SDS011;64039;53.060;9.342;2023-02-22T08:40:30;28.42;;;12.40;;
75459;SDS011;64039;53.060;9.342;2023-02-22T08:42:57;30.77;;;13.23;;
75459;SDS011;64039;53.060;9.342;2023-02-22T08:45:23;28.40;;;11.88;;
75459;SDS011;64039;53.060;9.342;2023-02-22T08:47:49;28.33;;;12.77;;
75459;SDS011;64039;53.060;9.342;2023-02-22T08:50:16;25.92;;;11.98;;
75459;SDS011;64039;53.060;9.342;2023-02-22T08:52:44;29.83;;;11.90;;
75459;SDS011;64039;53.060;9.342;2023-02-22T08:55:09;28.20;;;12.73;;
75459;SDS011;64039;53.060;9.342;2023-02-22T08:57:35;23.67;;;10.73;;
75459;SDS011;64039;53.060;9.342;2023-02-22T09:00:01;27.67;;;11.43;;
75459;SDS011;64039;53.060;9.342;2023-02-22T09:02:27;23.88;;;11.18;;
75459;SDS011;64039;53.060;9.342;2023-02-22T09:04:53;23.50;;;10.82;;
75459;SDS011;64039;53.060;9.342;2023-02-22T09:07:18;26.00;;;11.20;;
75459;SDS011;64039;53.060;9.342;2023-02-22T09:09:44;25.35;;;11.18;;
75459;SDS011;64039;53.060;9.342;2023-02-22T09:12:10;26.17;;;11.57;;
75459;SDS011;64039;53.060;9.342;2023-02-22T09:14:35;25.05;;;10.63;;
75459;SDS011;64039;53.060;9.342;2023-02-22T09:17:01;23.23;;;11.13;;
75459;SDS011;64039;53.060;9.342;2023-02-22T09:19:27;22.88;;;10.85;;
75459;SDS011;64039;53.060;9.342;2023-02-22T09:21:53;24.30;;;10.68;;
75459;SDS011;64039;53.060;9.342;2023-02-22T09:24:19;23.45;;;9.98;;
75459;SDS011;64039;53.060;9.342;2023-02-22T09:26:45;22.88;;;10.60;;
75459;SDS011;64039;53.060;9.342;2023-02-22T09:29:12;23.25;;;9.98;;
75459;SDS011;64039;53.060;9.342;2023-02-22T09:31:38;22.83;;;9.93;;
75459;SDS011;64039;53.060;9.342;2023-02-22T09:34:05;22.80;;;10.20;;
75459;SDS011;64039;53.060;9.342;2023-02-22T09:36:40;21.83;;;10.55;;
75459;SDS011;64039;53.060;9.342;2023-02-22T09:39:07;23.13;;;10.82;;
75459;SDS011;64039;53.060;9.342;2023-02-22T09:41:42;22.98;;;10.10;;
75459;SDS011;64039;53.060;9.342;2023-02-22T09:44:22;22.85;;;10.05;;
75459;SDS011;64039;53.060;9.342;2023-02-22T09:46:57;23.42;;;11.02;;
75459;SDS011;64039;53.060;9.342;2023-02-22T09:52:12;24.02;;;11.30;;
75459;SDS011;64039;53.060;9.342;2023-02-22T09:54:46;23.90;;;11.35;;
75459;SDS011;64039;53.060;9.342;2023-02-22T09:57:19;22.88;;;10.73;;
75459;SDS011;64039;53.060;9.342;2023-02-22T10:05:33;23.58;;;10.98;;
75459;SDS011;64039;53.060;9.342;2023-02-22T10:08:07;27.33;;;11.02;;
75459;SDS011;64039;53.060;9.342;2023-02-22T10:10:43;23.05;;;11.23;;
75459;SDS011;64039;53.060;9.342;2023-02-22T10:16:12;24.23;;;10.77;;
75459;SDS011;64039;53.060;9.342;2023-02-22T10:27:02;22.33;;;11.02;;
75459;SDS011;64039;53.060;9.342;2023-02-22T10:29:33;22.92;;;11.52;;
75459;SDS011;64039;53.060;9.342;2023-02-22T10:32:05;23.88;;;12.02;;
75459;SDS011;64039;53.060;9.342;2023-02-22T10:34:36;23.63;;;11.55;;
75459;SDS011;64039;53.060;9.342;2023-02-22T10:37:24;21.77;;;11.68;;
75459;SDS011;64039;53.060;9.342;2023-02-22T10:42:56;20.60;;;10.73;;
75459;SDS011;64039;53.060;9.342;2023-02-22T10:45:33;22.98;;;11.40;;
75459;SDS011;64039;53.060;9.342;2023-02-22T10:48:05;22.08;;;11.18;;
75459;SDS011;64039;53.060;9.342;2023-02-22T10:50:36;23.65;;;10.80;;
75459;SDS011;64039;53.060;9.342;2023-02-22T10:53:05;21.17;;;10.77;;
75459;SDS011;64039;53.060;9.342;2023-02-22T10:55:35;20.90;;;11.15;;
75459;SDS011;64039;53.060;9.342;2023-02-22T10:58:05;26.90;;;12.07;;
75459;SDS011;64039;53.060;9.342;2023-02-22T11:00:33;22.75;;;11.77;;
75459;SDS011;64039;53.060;9.342;2023-02-22T11:03:23;21.80;;;11.10;;
75459;SDS011;64039;53.060;9.342;2023-02-22T11:05:49;21.20;;;10.60;;
75459;SDS011;64039;53.060;9.342;2023-02-22T11:08:22;21.00;;;10.65;;
75459;SDS011;64039;53.060;9.342;2023-02-22T11:10:51;25.20;;;11.05;;
75459;SDS011;64039;53.060;9.342;2023-02-22T11:16:00;20.90;;;10.60;;
75459;SDS011;64039;53.060;9.342;2023-02-22T11:18:41;21.15;;;10.60;;
75459;SDS011;64039;53.060;9.342;2023-02-22T11:21:08;20.98;;;11.30;;
75459;SDS011;64039;53.060;9.342;2023-02-22T11:23:36;19.55;;;10.52;;
75459;SDS011;64039;53.060;9.342;2023-02-22T11:26:06;20.48;;;10.80;;
75459;SDS011;64039;53.060;9.342;2023-02-22T11:28:34;19.88;;;10.38;;
75459;SDS011;64039;53.060;9.342;2023-02-22T11:31:09;20.67;;;10.73;;
75459;SDS011;64039;53.060;9.342;2023-02-22T11:33:48;22.52;;;10.88;;
75459;SDS011;64039;53.060;9.342;2023-02-22T11:39:02;22.58;;;10.70;;
75459;SDS011;64039;53.060;9.342;2023-02-22T11:41:32;17.58;;;9.75;;
75459;SDS011;64039;53.060;9.342;2023-02-22T11:44:11;20.85;;;10.73;;
75459;SDS011;64039;53.060;9.342;2023-02-22T11:46:50;19.85;;;10.75;;
75459;SDS011;64039;53.060;9.342;2023-02-22T11:49:19;18.75;;;10.68;;
75459;SDS011;64039;53.060;9.342;2023-02-22T12:18:58;17.90;;;9.85;;
75459;SDS011;64039;53.060;9.342;2023-02-22T12:21:55;17.60;;;9.00;;
75459;SDS011;64039;53.060;9.342;2023-02-22T12:24:29;20.38;;;9.30;;
75459;SDS011;64039;53.060;9.342;2023-02-22T12:27:10;17.30;;;9.45;;
75459;SDS011;64039;53.060;9.342;2023-02-22T12:29:44;17.27;;;9.57;;
75459;SDS011;64039;53.060;9.342;2023-02-22T12:32:22;17.80;;;9.60;;
75459;SDS011;64039;53.060;9.342;2023-02-22T12:38:02;15.32;;;8.82;;
75459;SDS011;64039;53.060;9.342;2023-02-22T12:40:38;18.25;;;9.20;;
75459;SDS011;64039;53.060;9.342;2023-02-22T12:43:16;17.27;;;8.57;;
75459;SDS011;64039;53.060;9.342;2023-02-22T12:45:50;16.38;;;8.32;;
75459;SDS011;64039;53.060;9.342;2023-02-22T12:48:25;17.55;;;9.10;;
75459;SDS011;64039;53.060;9.342;2023-02-22T12:50:56;15.43;;;8.88;;
75459;SDS011;64039;53.060;9.342;2023-02-22T12:56:15;18.30;;;9.95;;
75459;SDS011;64039;53.060;9.342;2023-02-22T13:01:39;15.15;;;8.30;;
75459;SDS011;64039;53.060;9.342;2023-02-22T13:04:09;14.38;;;8.57;;
75459;SDS011;64039;53.060;9.342;2023-02-22T13:09:36;17.98;;;9.75;;
75459;SDS011;64039;53.060;9.342;2023-02-22T13:12:45;19.40;;;10.45;;
75459;SDS011;64039;53.060;9.342;2023-02-22T13:15:22;15.50;;;8.63;;
75459;SDS011;64039;53.060;9.342;2023-02-22T13:18:01;18.45;;;9.30;;
75459;SDS011;64039;53.060;9.342;2023-02-22T13:20:43;17.25;;;9.13;;
75459;SDS011;64039;53.060;9.342;2023-02-22T13:23:17;17.02;;;8.85;;
75459;SDS011;64039;53.060;9.342;2023-02-22T13:25:54;16.40;;;9.15;;
75459;SDS011;64039;53.060;9.342;2023-02-22T13:28:35;15.25;;;8.85;;
75459;SDS011;64039;53.060;9.342;2023-02-22T13:36:31;15.55;;;8.80;;
75459;SDS011;64039;53.060;9.342;2023-02-22T13:47:14;14.07;;;8.40;;
75459;SDS011;64039;53.060;9.342;2023-02-22T13:49:55;14.60;;;8.95;;
75459;SDS011;64039;53.060;9.342;2023-02-22T13:52:27;14.30;;;8.65;;
75459;SDS011;64039;53.060;9.342;2023-02-22T13:55:02;16.20;;;8.85;;
75459;SDS011;64039;53.060;9.342;2023-02-22T13:57:38;13.32;;;8.07;;
75459;SDS011;64039;53.060;9.342;2023-02-22T14:03:00;15.95;;;8.68;;
75459;SDS011;64039;53.060;9.342;2023-02-22T14:13:25;14.48;;;8.50;;
75459;SDS011;64039;53.060;9.342;2023-02-22T14:19:02;13.05;;;7.88;;
75459;SDS011;64039;53.060;9.342;2023-02-22T14:21:37;31.77;;;17.02;;
75459;SDS011;64039;53.060;9.342;2023-02-22T14:24:20;16.60;;;10.05;;
75459;SDS011;64039;53.060;9.342;2023-02-22T14:27:19;14.60;;;7.90;;
75459;SDS011;64039;53.060;9.342;2023-02-22T14:29:55;17.88;;;9.10;;
75459;SDS011;64039;53.060;9.342;2023-02-22T14:32:33;14.07;;;7.32;;
75459;SDS011;64039;53.060;9.342;2023-02-22T14:34:59;14.80;;;8.25;;
75459;SDS011;64039;53.060;9.342;2023-02-22T14:37:30;12.95;;;7.80;;
75459;SDS011;64039;53.060;9.342;2023-02-22T14:40:07;13.07;;;7.40;;
75459;SDS011;64039;53.060;9.342;2023-02-22T14:43:28;14.23;;;7.38;;
75459;SDS011;64039;53.060;9.342;2023-02-22T14:45:46;11.32;;;6.70;;
75459;SDS011;64039;53.060;9.342;2023-02-22T14:50:59;10.25;;;6.72;;
75459;SDS011;64039;53.060;9.342;2023-02-22T14:56:05;14.45;;;7.55;;
75459;SDS011;64039;53.060;9.342;2023-02-22T14:59:22;11.07;;;6.55;;
75459;SDS011;64039;53.060;9.342;2023-02-22T15:01:39;10.65;;;6.53;;
75459;SDS011;64039;53.060;9.342;2023-02-22T15:04:22;11.38;;;6.45;;
75459;SDS011;64039;53.060;9.342;2023-02-22T15:06:50;11.68;;;6.57;;
75459;SDS011;64039;53.060;9.342;2023-02-22T15:09:21;11.25;;;6.85;;
75459;SDS011;64039;53.060;9.342;2023-02-22T15:11:50;11.90;;;7.05;;
75459;SDS011;64039;53.060;9.342;2023-02-22T15:14:23;17.73;;;9.43;;
75459;SDS011;64039;53.060;9.342;2023-02-22T15:16:53;12.57;;;7.78;;
75459;SDS011;64039;53.060;9.342;2023-02-22T15:19:25;14.35;;;7.95;;
75459;SDS011;64039;53.060;9.342;2023-02-22T15:21:53;13.23;;;7.85;;
75459;SDS011;64039;53.060;9.342;2023-02-22T15:24:21;12.60;;;7.30;;
75459;SDS011;64039;53.060;9.342;2023-02-22T15:26:49;15.80;;;7.38;;
75459;SDS011;64039;53.060;9.342;2023-02-22T15:29:20;10.93;;;6.82;;
75459;SDS011;64039;53.060;9.342;2023-02-22T15:31:49;12.10;;;7.68;;
75459;SDS011;64039;53.060;9.342;2023-02-22T15:36:56;11.57;;;6.78;;
75459;SDS011;64039;53.060;9.342;2023-02-22T15:42:11;12.45;;;7.50;;
75459;SDS011;64039;53.060;9.342;2023-02-22T15:44:47;13.57;;;7.72;;
75459;SDS011;64039;53.060;9.342;2023-02-22T15:47:17;14.98;;;7.45;;
75459;SDS011;64039;53.060;9.342;2023-02-22T15:49:44;12.23;;;7.38;;
75459;SDS011;64039;53.060;9.342;2023-02-22T15:52:20;13.93;;;7.78;;
75459;SDS011;64039;53.060;9.342;2023-02-22T15:54:49;12.00;;;6.75;;
75459;SDS011;64039;53.060;9.342;2023-02-22T15:57:16;13.57;;;7.30;;
75459;SDS011;64039;53.060;9.342;2023-02-22T15:59:45;11.20;;;6.55;;
75459;SDS011;64039;53.060;9.342;2023-02-22T16:02:35;11.90;;;6.93;;
75459;SDS011;64039;53.060;9.342;2023-02-22T16:05:12;13.63;;;7.60;;
75459;SDS011;64039;53.060;9.342;2023-02-22T16:07:43;15.20;;;7.65;;
75459;SDS011;64039;53.060;9.342;2023-02-22T16:10:19;13.40;;;7.78;;
75459;SDS011;64039;53.060;9.342;2023-02-22T16:12:51;12.27;;;6.93;;
75459;SDS011;64039;53.060;9.342;2023-02-22T16:15:31;15.90;;;8.20;;
75459;SDS011;64039;53.060;9.342;2023-02-22T16:17:57;12.73;;;7.40;;
75459;SDS011;64039;53.060;9.342;2023-02-22T16:20:40;14.07;;;7.88;;
75459;SDS011;64039;53.060;9.342;2023-02-22T16:23:25;11.38;;;7.00;;
75459;SDS011;64039;53.060;9.342;2023-02-22T16:26:02;15.25;;;8.10;;
75459;SDS011;64039;53.060;9.342;2023-02-22T16:28:30;16.73;;;8.63;;
75459;SDS011;64039;53.060;9.342;2023-02-22T16:30:58;13.20;;;8.13;;
75459;SDS011;64039;53.060;9.342;2023-02-22T16:33:25;15.50;;;8.50;;
75459;SDS011;64039;53.060;9.342;2023-02-22T16:35:55;14.68;;;7.97;;
75459;SDS011;64039;53.060;9.342;2023-02-22T16:38:21;14.23;;;8.15;;
75459;SDS011;64039;53.060;9.342;2023-02-22T16:40:51;13.77;;;8.40;;
75459;SDS011;64039;53.060;9.342;2023-02-22T16:43:20;12.02;;;7.32;;
75459;SDS011;64039;53.060;9.342;2023-02-22T16:45:47;14.68;;;8.43;;
75459;SDS011;64039;53.060;9.342;2023-02-22T16:50:40;14.95;;;8.13;;
75459;SDS011;64039;53.060;9.342;2023-02-22T16:53:05;14.40;;;7.45;;
75459;SDS011;64039;53.060;9.342;2023-02-22T16:55:31;14.07;;;7.53;;
75459;SDS011;64039;53.060;9.342;2023-02-22T16:57:56;14.75;;;7.60;;